createdAt,value
2023-01-26T00:01:42.386Z,102026.37
2023-01-26T00:04:10.391Z,102023.98
2023-01-26T00:06:38.315Z,102022.77
2023-01-26T00:09:06.598Z,102011.85
2023-01-26T00:11:34.235Z,102020.32
2023-01-26T00:14:02.023Z,102012.27
2023-01-26T00:16:29.953Z,102001.77
2023-01-26T00:18:57.749Z,102002.98
2023-01-26T00:21:26.243Z,102000.57
2023-01-26T00:23:54.677Z,101996.48
2023-01-26T00:26:25.329Z,101995.27
2023-01-26T00:28:54.544Z,101997.30
2023-01-26T00:31:24.937Z,101992.03
2023-01-26T00:33:54.394Z,101988.41
2023-01-26T00:36:22.502Z,101999.29
2023-01-26T00:38:50.421Z,101999.29
2023-01-26T00:41:36.828Z,102005.73
2023-01-26T00:44:04.744Z,101997.69
2023-01-26T00:46:32.445Z,101998.90
2023-01-26T00:49:04.772Z,101998.05
2023-01-26T00:51:32.604Z,102004.91
2023-01-26T00:54:00.381Z,101998.45
2023-01-26T00:56:29.108Z,101990.01
2023-01-26T00:58:56.772Z,101991.61
2023-01-26T01:01:24.440Z,101993.60
2023-01-26T01:03:53.323Z,101991.18
2023-01-26T01:06:21.088Z,101990.79
2023-01-26T01:08:48.758Z,101992.03
2023-01-26T01:11:16.498Z,101989.22
2023-01-26T01:13:44.139Z,101993.27
2023-01-26T01:16:14.650Z,101984.80
2023-01-26T01:18:42.328Z,101989.25
2023-01-26T01:21:12.194Z,101991.28
2023-01-26T01:23:40.471Z,101993.70
2023-01-26T01:26:08.625Z,101996.94
2023-01-26T01:28:37.299Z,101993.70
2023-01-26T01:31:07.280Z,101990.04
2023-01-26T01:33:35.055Z,101992.88
2023-01-26T01:36:06.212Z,101992.46
2023-01-26T01:38:34.089Z,101984.02
2023-01-26T01:41:02.135Z,101977.97
2023-01-26T01:43:30.299Z,101980.00
2023-01-26T01:45:58.697Z,101965.05
2023-01-26T01:48:57.068Z,101968.69
2023-01-26T01:51:28.269Z,101969.90
2023-01-26T01:54:01.241Z,101974.73
2023-01-26T01:56:30.733Z,101968.65
2023-01-26T01:59:01.155Z,101969.50
2023-01-26T02:01:29.388Z,101965.45
2023-01-26T02:04:02.979Z,101967.48
2023-01-26T02:06:56.779Z,101965.84
2023-01-26T02:09:50.293Z,101966.23
2023-01-26T02:12:21.864Z,101962.99
2023-01-26T02:14:51.190Z,101962.21
2023-01-26T02:17:18.953Z,101960.15
2023-01-26T02:20:16.822Z,101959.73
2023-01-26T02:23:01.367Z,101964.14
2023-01-26T02:25:44.255Z,101959.30
2023-01-26T02:28:11.986Z,101946.35
2023-01-26T02:30:40.115Z,101947.95
2023-01-26T02:33:08.029Z,101951.62
2023-01-26T02:35:35.697Z,101944.36
2023-01-26T02:38:03.331Z,101938.73
2023-01-26T02:40:38.977Z,101929.48
2023-01-26T02:43:07.107Z,101932.29
2023-01-26T02:45:35.675Z,101927.84
2023-01-26T02:48:05.980Z,101929.48
2023-01-26T02:50:33.925Z,101931.90
2023-01-26T02:53:02.823Z,101931.90
2023-01-26T02:55:30.699Z,101924.64
2023-01-26T02:58:01.680Z,101917.38
2023-01-26T03:00:33.238Z,101915.38
2023-01-26T03:03:02.644Z,101908.13
2023-01-26T03:05:30.331Z,101909.73
2023-01-26T03:07:58.045Z,101909.76
2023-01-26T03:10:26.493Z,101906.52
2023-01-26T03:12:54.650Z,101911.39
2023-01-26T03:15:40.955Z,101899.69
2023-01-26T03:18:36.855Z,101896.05
2023-01-26T03:21:48.565Z,101888.80
2023-01-26T03:24:35.430Z,101881.15
2023-01-26T03:27:21.925Z,101881.57
2023-01-26T03:29:49.570Z,101888.41
2023-01-26T03:32:17.243Z,101878.73
2023-01-26T03:34:45.048Z,101883.56
2023-01-26T03:37:13.195Z,101876.30
2023-01-26T03:39:59.255Z,101867.84
2023-01-26T03:42:45.769Z,101873.07
2023-01-26T03:45:31.690Z,101868.66
2023-01-26T03:48:32.486Z,101867.02
2023-01-26T03:51:18.666Z,101856.52
2023-01-26T03:54:05.197Z,101852.93
2023-01-26T03:56:35.900Z,101864.63
2023-01-26T03:59:12.172Z,101860.58
2023-01-26T04:01:42.485Z,101858.98
2023-01-26T04:04:30.904Z,101856.16
2023-01-26T04:07:17.113Z,101854.95
2023-01-26T04:09:44.801Z,101867.45
2023-01-26T04:12:13.290Z,101863.81
2023-01-26T04:14:59.581Z,101861.40
2023-01-26T04:17:45.959Z,101865.02
2023-01-26T04:20:32.512Z,101860.19
2023-01-26T04:23:00.199Z,101854.13
2023-01-26T04:25:27.923Z,101852.93
2023-01-26T04:27:55.695Z,101857.77
2023-01-26T04:30:23.470Z,101847.27
2023-01-26T04:32:52.161Z,101843.67
2023-01-26T04:35:19.891Z,101844.45
2023-01-26T04:37:48.830Z,101841.22
2023-01-26T04:40:16.651Z,101842.04
2023-01-26T04:42:44.472Z,101833.17
2023-01-26T04:45:12.801Z,101835.98
2023-01-26T04:47:40.603Z,101829.94
2023-01-26T04:50:09.118Z,101837.20
2023-01-26T04:52:36.975Z,101831.97
2023-01-26T04:55:04.856Z,101829.94
2023-01-26T04:57:32.591Z,101829.94
2023-01-26T05:00:00.313Z,101821.08
2023-01-26T05:02:28.031Z,101816.23
2023-01-26T05:04:55.863Z,101809.40
2023-01-26T05:07:23.493Z,101813.82
2023-01-26T05:09:51.353Z,101812.18
2023-01-26T05:12:38.449Z,101814.24
2023-01-26T05:15:06.404Z,101812.21
2023-01-26T05:17:34.097Z,101813.03
2023-01-26T05:20:01.811Z,101809.01
2023-01-26T05:22:29.423Z,101817.88
2023-01-26T05:24:57.106Z,101809.37
2023-01-26T05:27:24.867Z,101820.29
2023-01-26T05:29:52.902Z,101810.58
2023-01-26T05:32:20.825Z,101811.79
2023-01-26T05:34:48.541Z,101813.03
2023-01-26T05:37:16.418Z,101808.59
2023-01-26T05:39:44.286Z,101808.59
2023-01-26T05:42:13.442Z,101811.01
2023-01-26T05:44:41.250Z,101810.58
2023-01-26T05:47:09.168Z,101810.97
2023-01-26T05:49:39.834Z,101808.98
2023-01-26T05:52:15.300Z,101809.37
2023-01-26T05:54:43.198Z,101813.42
2023-01-26T05:57:11.087Z,101814.63
2023-01-26T05:59:39.166Z,101819.08
2023-01-26T06:02:06.916Z,101816.23
2023-01-26T06:04:34.670Z,101826.73
2023-01-26T06:07:02.401Z,101824.31
2023-01-26T06:09:30.295Z,101822.71
2023-01-26T06:11:58.762Z,101819.48
2023-01-26T06:14:26.442Z,101817.84
2023-01-26T06:16:55.545Z,101832.75
2023-01-26T06:19:23.340Z,101835.59
2023-01-26T06:21:51.103Z,101836.41
2023-01-26T06:24:18.882Z,101834.38
2023-01-26T06:26:49.379Z,101837.20
2023-01-26T06:29:17.210Z,101843.28
2023-01-26T06:31:44.956Z,101840.44
2023-01-26T06:34:12.742Z,101840.40
2023-01-26T06:36:40.420Z,101842.85
2023-01-26T06:39:08.705Z,101846.87
2023-01-26T06:41:36.424Z,101850.12
2023-01-26T06:44:04.163Z,101840.44
2023-01-26T06:46:31.815Z,101837.63
2023-01-26T06:48:59.483Z,101836.80
2023-01-26T06:51:49.106Z,101846.48
2023-01-26T06:54:17.009Z,101838.80
2023-01-26T06:56:44.776Z,101827.95
2023-01-26T06:59:12.509Z,101827.13
2023-01-26T07:01:46.689Z,101828.76
2023-01-26T07:04:14.586Z,101827.13
2023-01-26T07:06:42.457Z,101820.69
2023-01-26T07:09:10.557Z,101823.49
2023-01-26T07:11:38.439Z,101827.91
2023-01-26T07:14:06.161Z,101831.57
2023-01-26T07:16:34.123Z,101833.57
2023-01-26T07:19:01.970Z,101833.96
2023-01-26T07:21:29.722Z,101830.36
2023-01-26T07:23:57.738Z,101828.73
2023-01-26T07:26:25.416Z,101832.39
2023-01-26T07:28:53.238Z,101833.99
2023-01-26T07:31:21.153Z,101837.63
2023-01-26T07:33:48.884Z,101833.57
2023-01-26T07:36:16.602Z,101830.36
2023-01-26T07:38:44.244Z,101826.70
2023-01-26T07:41:14.044Z,101831.15
2023-01-26T07:43:43.691Z,101826.70
2023-01-26T07:46:12.035Z,101829.94
2023-01-26T07:48:40.147Z,101828.34
2023-01-26T07:51:10.398Z,101832.78
2023-01-26T07:53:43.407Z,101830.73
2023-01-26T07:56:14.400Z,101815.84
2023-01-26T07:58:42.541Z,101823.10
2023-01-26T08:01:16.097Z,101818.23
2023-01-26T08:03:46.576Z,101822.25
2023-01-26T08:06:15.709Z,101816.63
2023-01-26T08:08:44.050Z,101826.30
2023-01-26T08:11:12.979Z,101820.29
2023-01-26T08:13:40.759Z,101829.16
2023-01-26T08:16:13.480Z,101819.48
2023-01-26T08:18:43.187Z,101824.28
2023-01-26T08:21:12.465Z,101822.68
2023-01-26T08:23:40.691Z,101820.69
2023-01-26T08:26:12.369Z,101826.30
2023-01-26T08:28:40.748Z,101816.23
2023-01-26T08:31:14.782Z,101816.23
2023-01-26T08:33:44.376Z,101825.10
2023-01-26T08:36:14.159Z,101822.68
2023-01-26T08:38:42.532Z,101816.23
2023-01-26T08:41:11.022Z,101822.71
2023-01-26T08:43:39.041Z,101821.89
2023-01-26T08:46:07.738Z,101814.21
2023-01-26T08:48:35.491Z,101809.77
2023-01-26T08:51:05.683Z,101814.63
2023-01-26T08:53:34.706Z,101814.63
2023-01-26T08:56:04.521Z,101812.21
2023-01-26T08:58:32.779Z,101820.29
2023-01-26T09:01:04.478Z,101820.29
2023-01-26T09:03:32.134Z,101822.29
2023-01-26T09:06:03.785Z,101817.05
2023-01-26T09:08:32.143Z,101814.24
2023-01-26T09:11:00.065Z,101817.02
2023-01-26T09:13:27.989Z,101811.01
2023-01-26T09:15:55.739Z,101811.01
2023-01-26T09:18:23.456Z,101810.58
2023-01-26T09:20:52.399Z,101822.29
2023-01-26T09:23:20.149Z,101814.21
2023-01-26T09:25:53.342Z,101814.99
2023-01-26T09:28:21.092Z,101813.39
2023-01-26T09:30:48.974Z,101824.28
2023-01-26T09:33:16.833Z,101825.49
2023-01-26T09:35:44.482Z,101814.99
2023-01-26T09:38:12.274Z,101810.97
2023-01-26T09:41:09.180Z,101814.60
2023-01-26T09:43:46.278Z,101820.23
2023-01-26T09:46:32.931Z,101817.41
2023-01-26T09:49:00.633Z,101812.97
2023-01-26T09:51:45.746Z,101807.70
2023-01-26T09:54:42.931Z,101804.89
2023-01-26T09:57:16.947Z,101804.83
2023-01-26T09:59:57.378Z,101808.88
2023-01-26T10:02:51.823Z,101810.52
2023-01-26T10:05:30.374Z,101813.75
2023-01-26T10:07:58.439Z,101812.57
2023-01-26T10:10:33.761Z,101812.97
2023-01-26T10:13:01.992Z,101810.58
2023-01-26T10:15:33.154Z,101813.78
2023-01-26T10:18:09.041Z,101810.19
2023-01-26T10:20:45.069Z,101798.48
2023-01-26T10:23:19.453Z,101799.27
2023-01-26T10:25:48.174Z,101796.88
2023-01-26T10:28:39.297Z,101797.66
2023-01-26T10:31:13.492Z,101795.63
2023-01-26T10:33:51.053Z,101802.11
2023-01-26T10:36:18.899Z,101788.77
2023-01-26T10:38:48.138Z,101781.12
2023-01-26T10:41:15.769Z,101789.98
2023-01-26T10:43:51.071Z,101788.80
2023-01-26T10:46:30.864Z,101789.98
2023-01-26T10:49:02.046Z,101785.95
2023-01-26T10:51:35.097Z,101787.98
2023-01-26T10:54:21.816Z,101785.56
2023-01-26T10:57:15.599Z,101788.77
2023-01-26T11:00:09.609Z,101784.78
2023-01-26T11:02:38.110Z,101781.12
2023-01-26T11:05:08.911Z,101784.78
2023-01-26T11:07:42.250Z,101787.59
2023-01-26T11:10:22.257Z,101786.38
2023-01-26T11:12:50.489Z,101783.96
2023-01-26T11:15:28.342Z,101790.37
2023-01-26T11:18:03.251Z,101789.20
2023-01-26T11:20:51.161Z,101787.16
2023-01-26T11:23:46.780Z,101796.45
2023-01-26T11:26:34.252Z,101789.98
2023-01-26T11:29:18.013Z,101790.37
2023-01-26T11:31:51.268Z,101777.48
2023-01-26T11:34:40.223Z,101781.12
2023-01-26T11:37:10.727Z,101780.73
2023-01-26T11:40:03.167Z,101783.11
2023-01-26T11:42:46.628Z,101778.70
2023-01-26T11:45:57.209Z,101765.78
2023-01-26T11:48:25.122Z,101775.10
2023-01-26T11:51:07.822Z,101766.60
2023-01-26T11:53:47.148Z,101776.31
2023-01-26T11:56:34.744Z,101769.45
2023-01-26T11:59:11.328Z,101759.73
2023-01-26T12:01:47.437Z,101758.91
2023-01-26T12:04:23.948Z,101758.09
2023-01-26T12:06:59.015Z,101758.52
2023-01-26T12:09:54.064Z,101756.52
2023-01-26T12:12:44.518Z,101752.54
2023-01-26T12:15:35.496Z,101744.07
2023-01-26T12:18:23.458Z,101739.23
2023-01-26T12:21:04.290Z,101742.04
2023-01-26T12:23:39.911Z,101738.02
2023-01-26T12:26:18.119Z,101740.83
2023-01-26T12:28:53.984Z,101731.58
2023-01-26T12:31:35.269Z,101735.56
2023-01-26T12:34:03.116Z,101727.52
2023-01-26T12:36:47.703Z,101723.89
2023-01-26T12:39:26.695Z,101728.30
2023-01-26T12:42:04.219Z,101731.91
2023-01-26T12:44:34.893Z,101733.96
2023-01-26T12:47:09.813Z,101728.70
2023-01-26T12:49:41.950Z,101726.70
2023-01-26T12:52:25.161Z,101721.44
2023-01-26T12:55:21.125Z,101725.88
2023-01-26T12:57:55.876Z,101725.46
2023-01-26T13:00:27.026Z,101717.38
2023-01-26T13:02:59.925Z,101722.65
2023-01-26T13:05:32.099Z,101712.58
2023-01-26T13:07:59.818Z,101723.50
2023-01-26T13:10:30.346Z,101721.51
2023-01-26T13:13:22.036Z,101720.69
2023-01-26T13:16:18.588Z,101719.45
2023-01-26T13:18:59.978Z,101710.98
2023-01-26T13:21:36.916Z,101708.55
2023-01-26T13:24:18.130Z,101704.53
2023-01-26T13:26:49.990Z,101702.90
2023-01-26T13:29:26.982Z,101700.91
2023-01-26T13:32:00.131Z,101702.11
2023-01-26T13:34:36.766Z,101707.38
2023-01-26T13:37:15.838Z,101696.49
2023-01-26T13:39:49.566Z,101698.48
2023-01-26T13:42:23.822Z,101693.25
2023-01-26T13:45:01.969Z,101702.51
2023-01-26T13:47:38.642Z,101696.06
2023-01-26T13:50:38.838Z,101689.20
2023-01-26T13:53:39.350Z,101694.43
2023-01-26T13:56:21.327Z,101698.42
2023-01-26T13:58:49.132Z,101705.28
2023-01-26T14:01:18.260Z,101698.42
2023-01-26T14:03:46.316Z,101701.63
2023-01-26T14:06:23.693Z,101698.38
2023-01-26T14:08:57.125Z,101701.63
2023-01-26T14:11:28.695Z,101699.23
2023-01-26T14:14:00.182Z,101695.97
2023-01-26T14:16:32.515Z,101703.23
2023-01-26T14:19:21.282Z,101701.66
2023-01-26T14:21:51.602Z,101694.82
2023-01-26T14:24:42.306Z,101694.04
2023-01-26T14:27:37.221Z,101706.10
2023-01-26T14:30:40.473Z,101704.89
2023-01-26T14:33:16.591Z,101694.43
2023-01-26T14:35:56.279Z,101703.29
2023-01-26T14:38:23.966Z,101708.55
2023-01-26T14:40:54.779Z,101704.14
2023-01-26T14:43:23.328Z,101704.53
2023-01-26T14:45:56.847Z,101702.51
2023-01-26T14:48:32.385Z,101704.50
2023-01-26T14:51:01.723Z,101705.28
2023-01-26T14:53:29.459Z,101711.37
2023-01-26T14:55:57.325Z,101720.63
2023-01-26T14:58:34.905Z,101712.19
2023-01-26T15:01:04.302Z,101715.42
2023-01-26T15:03:38.588Z,101717.02
2023-01-26T15:06:16.360Z,101717.84
2023-01-26T15:08:55.284Z,101714.64
2023-01-26T15:11:59.994Z,101720.66
2023-01-26T15:14:52.987Z,101718.63
2023-01-26T15:17:39.080Z,101720.26
2023-01-26T15:20:33.396Z,101721.05
2023-01-26T15:23:01.128Z,101720.26
2023-01-26T15:25:30.685Z,101711.79
2023-01-26T15:28:00.665Z,101725.92
2023-01-26T15:30:32.872Z,101730.76
2023-01-26T15:33:01.164Z,101725.49
2023-01-26T15:35:33.688Z,101724.71
2023-01-26T15:38:13.853Z,101724.71
2023-01-26T15:40:41.546Z,101729.91
2023-01-26T15:43:17.062Z,101725.10
2023-01-26T15:45:58.301Z,101730.73
2023-01-26T15:48:26.610Z,101733.96
2023-01-26T15:50:54.561Z,101729.13
2023-01-26T15:53:23.640Z,101735.17
2023-01-26T15:55:57.046Z,101730.30
2023-01-26T15:58:24.861Z,101740.02
2023-01-26T16:00:53.783Z,101737.59
2023-01-26T16:03:22.954Z,101737.16
2023-01-26T16:05:50.780Z,101733.15
2023-01-26T16:08:19.650Z,101729.09
2023-01-26T16:10:48.544Z,101728.30
2023-01-26T16:13:19.103Z,101737.16
2023-01-26T16:15:54.859Z,101724.68
2023-01-26T16:18:22.538Z,101735.56
2023-01-26T16:20:51.664Z,101732.30
2023-01-26T16:23:23.610Z,101733.15
2023-01-26T16:25:52.029Z,101733.54
2023-01-26T16:28:20.392Z,101735.56
2023-01-26T16:30:50.470Z,101732.30
2023-01-26T16:33:22.381Z,101741.98
2023-01-26T16:35:50.255Z,101737.95
2023-01-26T16:38:18.258Z,101733.11
2023-01-26T16:40:48.518Z,101733.96
2023-01-26T16:43:16.121Z,101731.91
2023-01-26T16:45:43.929Z,101740.80
2023-01-26T16:48:16.226Z,101741.22
2023-01-26T16:50:45.552Z,101739.59
2023-01-26T16:53:25.394Z,101739.98
2023-01-26T16:55:53.815Z,101741.22
2023-01-26T16:58:22.990Z,101742.04
2023-01-26T17:00:50.791Z,101747.24
2023-01-26T17:03:18.498Z,101744.43
2023-01-26T17:05:46.604Z,101742.83
2023-01-26T17:08:14.539Z,101742.04
2023-01-26T17:10:59.546Z,101740.44
2023-01-26T17:13:29.159Z,101741.65
2023-01-26T17:15:58.326Z,101729.55
2023-01-26T17:18:26.372Z,101737.23
2023-01-26T17:20:54.196Z,101735.99
2023-01-26T17:23:21.917Z,101744.07
2023-01-26T17:25:49.939Z,101731.97
2023-01-26T17:28:17.607Z,101732.36
2023-01-26T17:30:45.299Z,101730.37
2023-01-26T17:33:12.963Z,101741.65
2023-01-26T17:35:40.670Z,101739.66
2023-01-26T17:38:08.353Z,101741.26
2023-01-26T17:40:37.828Z,101728.34
2023-01-26T17:43:05.416Z,101736.38
2023-01-26T17:45:33.148Z,101735.60
2023-01-26T17:48:00.899Z,101735.60
2023-01-26T17:50:28.555Z,101736.38
2023-01-26T17:52:56.177Z,101735.60
2023-01-26T17:55:23.884Z,101732.79
2023-01-26T17:57:51.642Z,101731.18
2023-01-26T18:00:20.129Z,101735.99
2023-01-26T18:02:47.805Z,101735.20
2023-01-26T18:05:15.635Z,101732.36
2023-01-26T18:07:43.375Z,101742.04
2023-01-26T18:10:11.739Z,101735.56
2023-01-26T18:12:39.604Z,101744.03
2023-01-26T18:15:07.945Z,101747.70
2023-01-26T18:17:35.635Z,101738.45
2023-01-26T18:20:04.703Z,101736.38
2023-01-26T18:22:32.821Z,101738.02
2023-01-26T18:25:00.629Z,101749.30
2023-01-26T18:27:28.464Z,101746.45
2023-01-26T18:29:56.170Z,101748.91
2023-01-26T18:32:23.938Z,101743.25
2023-01-26T18:34:51.599Z,101738.80
2023-01-26T18:37:19.298Z,101735.17
2023-01-26T18:39:46.966Z,101737.98
2023-01-26T18:42:14.778Z,101741.22
2023-01-26T18:44:42.568Z,101740.83
2023-01-26T18:47:10.351Z,101743.22
2023-01-26T18:49:38.199Z,101742.83
2023-01-26T18:52:06.294Z,101737.95
2023-01-26T18:54:34.613Z,101739.59
2023-01-26T18:57:02.369Z,101736.77
2023-01-26T18:59:30.123Z,101736.77
2023-01-26T19:01:57.875Z,101728.30
2023-01-26T19:04:25.530Z,101731.97
2023-01-26T19:06:53.323Z,101735.17
2023-01-26T19:09:21.099Z,101737.63
2023-01-26T19:11:48.931Z,101740.05
2023-01-26T19:14:16.784Z,101735.99
2023-01-26T19:16:48.704Z,101735.17
2023-01-26T19:19:16.737Z,101735.20
2023-01-26T19:21:44.571Z,101731.58
2023-01-26T19:24:12.385Z,101724.71
2023-01-26T19:26:40.235Z,101724.32
2023-01-26T19:29:08.034Z,101727.12
2023-01-26T19:31:36.472Z,101721.90
2023-01-26T19:34:07.864Z,101719.90
2023-01-26T19:36:37.710Z,101717.84
2023-01-26T19:39:07.321Z,101708.98
2023-01-26T19:41:35.571Z,101713.03
2023-01-26T19:44:03.343Z,101705.77
2023-01-26T19:46:31.114Z,101706.59
2023-01-26T19:48:58.854Z,101704.17
2023-01-26T19:51:27.849Z,101709.83
2023-01-26T19:53:58.079Z,101704.17
2023-01-26T19:56:28.613Z,101711.43
2023-01-26T19:58:58.356Z,101706.59
2023-01-26T20:01:28.135Z,101710.65
2023-01-26T20:03:59.166Z,101715.88
2023-01-26T20:06:29.403Z,101715.88
2023-01-26T20:08:58.430Z,101711.04
2023-01-26T20:11:28.408Z,101708.20
2023-01-26T20:14:01.528Z,101709.02
2023-01-26T20:16:30.337Z,101709.44
2023-01-26T20:19:00.183Z,101712.25
2023-01-26T20:21:29.284Z,101704.17
2023-01-26T20:23:57.265Z,101704.96
2023-01-26T20:26:27.595Z,101706.98
2023-01-26T20:28:58.263Z,101708.62
2023-01-26T20:31:27.895Z,101713.85
2023-01-26T20:33:56.437Z,101708.62
2023-01-26T20:36:28.204Z,101715.48
2023-01-26T20:38:55.835Z,101718.70
2023-01-26T20:41:28.294Z,101714.28
2023-01-26T20:44:00.563Z,101713.88
2023-01-26T20:46:40.005Z,101713.88
2023-01-26T20:49:10.933Z,101709.44
2023-01-26T20:51:40.623Z,101709.86
2023-01-26T20:54:09.379Z,101708.23
2023-01-26T20:56:37.747Z,101711.07
2023-01-26T20:59:07.136Z,101716.70
2023-01-26T21:01:35.717Z,101716.70
2023-01-26T21:04:04.590Z,101712.67
2023-01-26T21:06:32.568Z,101707.80
2023-01-26T21:09:01.267Z,101701.39
2023-01-26T21:11:31.889Z,101695.31
2023-01-26T21:14:02.778Z,101703.39
2023-01-26T21:16:32.633Z,101699.76
2023-01-26T21:19:00.412Z,101708.20
2023-01-26T21:21:28.495Z,101700.97
2023-01-26T21:23:56.365Z,101702.99
2023-01-26T21:26:26.033Z,101706.59
2023-01-26T21:28:56.604Z,101706.98
2023-01-26T21:31:26.567Z,101708.62
2023-01-26T21:33:55.018Z,101711.43
2023-01-26T21:36:26.163Z,101706.98
2023-01-26T21:38:56.925Z,101695.31
2023-01-26T21:41:45.658Z,101692.50
2023-01-26T21:44:22.292Z,101695.34
2023-01-26T21:46:52.986Z,101701.39
2023-01-26T21:49:21.692Z,101697.34
2023-01-26T21:52:08.145Z,101694.52
2023-01-26T21:54:36.595Z,101701.00
2023-01-26T21:57:26.460Z,101696.55
2023-01-26T21:59:54.402Z,101691.32
2023-01-26T22:02:22.645Z,101692.92
2023-01-26T22:04:50.550Z,101693.35
2023-01-26T22:07:18.286Z,101691.32
2023-01-26T22:09:46.107Z,101694.95
2023-01-26T22:12:13.854Z,101689.69
2023-01-26T22:14:41.640Z,101683.24
2023-01-26T22:17:09.315Z,101692.53
2023-01-26T22:19:37.055Z,101693.35
2023-01-26T22:22:04.799Z,101690.08
2023-01-26T22:24:32.591Z,101691.29
2023-01-26T22:27:00.248Z,101688.09
2023-01-26T22:29:28.012Z,101684.06
2023-01-26T22:31:55.709Z,101682.85
2023-01-26T22:34:23.564Z,101694.56
2023-01-26T22:36:51.262Z,101692.53
2023-01-26T22:39:19.109Z,101695.34
2023-01-26T22:41:46.854Z,101688.90
2023-01-26T22:44:14.532Z,101691.32
2023-01-26T22:46:42.294Z,101686.09
2023-01-26T22:49:11.255Z,101687.30
2023-01-26T22:51:39.104Z,101682.46
2023-01-26T22:54:07.550Z,101682.04
2023-01-26T22:56:35.306Z,101677.23
2023-01-26T22:59:03.345Z,101673.99
2023-01-26T23:01:33.338Z,101673.99
2023-01-26T23:04:02.503Z,101676.84
2023-01-26T23:06:30.416Z,101670.75
2023-01-26T23:08:59.516Z,101671.96
2023-01-26T23:11:29.810Z,101677.66
2023-01-26T23:13:59.287Z,101671.57
2023-01-26T23:16:27.709Z,101667.98
2023-01-26T23:18:57.544Z,101667.16
2023-01-26T23:21:27.070Z,101666.73
2023-01-26T23:23:54.983Z,101670.39
2023-01-26T23:26:23.572Z,101659.90
2023-01-26T23:28:51.432Z,101661.50
2023-01-26T23:31:20.145Z,101667.98
2023-01-26T23:33:48.430Z,101667.55
2023-01-26T23:36:17.076Z,101656.27
2023-01-26T23:38:46.750Z,101659.90
2023-01-26T23:41:16.055Z,101669.15
2023-01-26T23:43:43.838Z,101669.15
2023-01-26T23:46:12.882Z,101660.71
2023-01-26T23:48:41.474Z,101662.74
2023-01-26T23:51:11.517Z,101657.48
2023-01-26T23:53:39.618Z,101660.71
2023-01-26T23:56:25.327Z,101657.09
2023-01-26T23:58:53.074Z,101659.08
